sensor_id;sensor_type;location;lat;lon;timestamp;P1;durP1;ratioP1;P2;durP2;ratioP2
18304;SDS011;9278;52.156;21.048;2023-04-23T00:02:21;53.38;;;24.63;;
18304;SDS011;9278;52.156;21.048;2023-04-23T00:04:52;51.17;;;24.67;;
18304;SDS011;9278;52.156;21.048;2023-04-23T00:07:21;48.53;;;23.10;;
18304;SDS011;9278;52.156;21.048;2023-04-23T00:09:50;50.35;;;22.92;;
18304;SDS011;9278;52.156;21.048;2023-04-23T00:12:23;47.17;;;22.33;;
18304;SDS011;9278;52.156;21.048;2023-04-23T00:14:51;52.70;;;24.25;;
18304;SDS011;9278;52.156;21.048;2023-04-23T00:17:22;50.35;;;24.23;;
18304;SDS011;9278;52.156;21.048;2023-04-23T00:19:50;55.28;;;23.17;;
18304;SDS011;9278;52.156;21.048;2023-04-23T00:22:18;49.58;;;24.00;;
18304;SDS011;9278;52.156;21.048;2023-04-23T00:24:47;50.58;;;24.83;;
18304;SDS011;9278;52.156;21.048;2023-04-23T00:27:15;53.17;;;24.85;;
18304;SDS011;9278;52.156;21.048;2023-04-23T00:29:48;53.10;;;25.93;;
18304;SDS011;9278;52.156;21.048;2023-04-23T00:32:16;51.97;;;25.25;;
18304;SDS011;9278;52.156;21.048;2023-04-23T00:34:46;52.17;;;25.50;;
18304;SDS011;9278;52.156;21.048;2023-04-23T00:37:15;52.92;;;23.95;;
18304;SDS011;9278;52.156;21.048;2023-04-23T00:39:43;50.90;;;23.80;;
18304;SDS011;9278;52.156;21.048;2023-04-23T00:42:11;58.63;;;24.27;;
18304;SDS011;9278;52.156;21.048;2023-04-23T00:44:42;48.88;;;23.50;;
18304;SDS011;9278;52.156;21.048;2023-04-23T00:47:10;40.42;;;21.08;;
18304;SDS011;9278;52.156;21.048;2023-04-23T00:49:39;46.37;;;20.33;;
18304;SDS011;9278;52.156;21.048;2023-04-23T00:52:10;42.47;;;20.93;;
18304;SDS011;9278;52.156;21.048;2023-04-23T00:54:38;42.17;;;20.45;;
18304;SDS011;9278;52.156;21.048;2023-04-23T00:57:07;45.08;;;22.67;;
18304;SDS011;9278;52.156;21.048;2023-04-23T00:59:35;50.13;;;22.23;;
18304;SDS011;9278;52.156;21.048;2023-04-23T01:02:04;40.50;;;20.77;;
18304;SDS011;9278;52.156;21.048;2023-04-23T01:04:32;47.20;;;21.73;;
18304;SDS011;9278;52.156;21.048;2023-04-23T01:07:02;45.60;;;21.67;;
18304;SDS011;9278;52.156;21.048;2023-04-23T01:09:32;46.60;;;20.57;;
18304;SDS011;9278;52.156;21.048;2023-04-23T01:12:01;41.43;;;20.77;;
18304;SDS011;9278;52.156;21.048;2023-04-23T01:14:32;42.72;;;21.05;;
18304;SDS011;9278;52.156;21.048;2023-04-23T01:17:00;44.13;;;21.52;;
18304;SDS011;9278;52.156;21.048;2023-04-23T01:19:29;42.70;;;20.88;;
18304;SDS011;9278;52.156;21.048;2023-04-23T01:21:57;51.57;;;23.17;;
18304;SDS011;9278;52.156;21.048;2023-04-23T01:24:28;44.55;;;20.88;;
18304;SDS011;9278;52.156;21.048;2023-04-23T01:26:57;43.22;;;20.35;;
18304;SDS011;9278;52.156;21.048;2023-04-23T01:29:27;42.13;;;20.17;;
18304;SDS011;9278;52.156;21.048;2023-04-23T01:31:56;40.17;;;19.20;;
18304;SDS011;9278;52.156;21.048;2023-04-23T01:34:25;42.13;;;20.60;;
18304;SDS011;9278;52.156;21.048;2023-04-23T01:36:54;42.25;;;20.08;;
18304;SDS011;9278;52.156;21.048;2023-04-23T01:39:23;40.88;;;20.77;;
18304;SDS011;9278;52.156;21.048;2023-04-23T01:41:53;37.30;;;18.80;;
18304;SDS011;9278;52.156;21.048;2023-04-23T01:44:22;42.25;;;18.92;;
18304;SDS011;9278;52.156;21.048;2023-04-23T01:46:51;43.88;;;20.60;;
18304;SDS011;9278;52.156;21.048;2023-04-23T01:49:19;41.35;;;20.38;;
18304;SDS011;9278;52.156;21.048;2023-04-23T01:51:48;46.50;;;20.83;;
18304;SDS011;9278;52.156;21.048;2023-04-23T01:54:16;38.25;;;19.05;;
18304;SDS011;9278;52.156;21.048;2023-04-23T01:56:44;40.28;;;19.42;;
18304;SDS011;9278;52.156;21.048;2023-04-23T01:59:16;36.30;;;19.00;;
18304;SDS011;9278;52.156;21.048;2023-04-23T02:01:44;39.67;;;19.38;;
18304;SDS011;9278;52.156;21.048;2023-04-23T02:04:16;34.50;;;17.90;;
18304;SDS011;9278;52.156;21.048;2023-04-23T02:06:46;40.95;;;18.25;;
18304;SDS011;9278;52.156;21.048;2023-04-23T02:09:17;35.80;;;16.95;;
18304;SDS011;9278;52.156;21.048;2023-04-23T02:11:47;40.08;;;18.65;;
18304;SDS011;9278;52.156;21.048;2023-04-23T02:14:17;38.95;;;18.63;;
18304;SDS011;9278;52.156;21.048;2023-04-23T02:16:46;38.58;;;18.17;;
18304;SDS011;9278;52.156;21.048;2023-04-23T02:19:15;34.08;;;18.17;;
18304;SDS011;9278;52.156;21.048;2023-04-23T02:21:44;38.53;;;18.73;;
18304;SDS011;9278;52.156;21.048;2023-04-23T02:24:12;36.00;;;17.53;;
18304;SDS011;9278;52.156;21.048;2023-04-23T02:26:40;32.50;;;16.95;;
18304;SDS011;9278;52.156;21.048;2023-04-23T02:29:08;37.33;;;17.27;;
18304;SDS011;9278;52.156;21.048;2023-04-23T02:31:38;38.70;;;17.98;;
18304;SDS011;9278;52.156;21.048;2023-04-23T02:34:06;37.30;;;17.30;;
18304;SDS011;9278;52.156;21.048;2023-04-23T02:36:34;39.40;;;18.00;;
18304;SDS011;9278;52.156;21.048;2023-04-23T02:39:03;33.17;;;17.67;;
18304;SDS011;9278;52.156;21.048;2023-04-23T02:41:32;35.53;;;17.30;;
18304;SDS011;9278;52.156;21.048;2023-04-23T02:44:00;35.07;;;16.87;;
18304;SDS011;9278;52.156;21.048;2023-04-23T02:46:29;38.40;;;17.87;;
18304;SDS011;9278;52.156;21.048;2023-04-23T02:48:59;38.07;;;17.03;;
18304;SDS011;9278;52.156;21.048;2023-04-23T02:51:27;41.53;;;18.83;;
18304;SDS011;9278;52.156;21.048;2023-04-23T02:53:56;38.07;;;17.93;;
18304;SDS011;9278;52.156;21.048;2023-04-23T02:56:25;34.78;;;17.02;;
18304;SDS011;9278;52.156;21.048;2023-04-23T02:58:53;32.60;;;17.37;;
18304;SDS011;9278;52.156;21.048;2023-04-23T03:01:21;34.17;;;17.73;;
18304;SDS011;9278;52.156;21.048;2023-04-23T03:03:50;31.03;;;16.80;;
18304;SDS011;9278;52.156;21.048;2023-04-23T03:06:20;36.47;;;16.67;;
18304;SDS011;9278;52.156;21.048;2023-04-23T03:08:48;32.83;;;16.57;;
18304;SDS011;9278;52.156;21.048;2023-04-23T03:11:16;33.17;;;16.93;;
18304;SDS011;9278;52.156;21.048;2023-04-23T03:13:45;34.40;;;16.60;;
18304;SDS011;9278;52.156;21.048;2023-04-23T03:16:13;30.60;;;15.97;;
18304;SDS011;9278;52.156;21.048;2023-04-23T03:18:42;34.50;;;17.33;;
18304;SDS011;9278;52.156;21.048;2023-04-23T03:21:11;38.17;;;17.70;;
18304;SDS011;9278;52.156;21.048;2023-04-23T03:23:40;31.63;;;16.30;;
18304;SDS011;9278;52.156;21.048;2023-04-23T03:26:08;34.87;;;15.50;;
18304;SDS011;9278;52.156;21.048;2023-04-23T03:28:37;35.00;;;15.67;;
18304;SDS011;9278;52.156;21.048;2023-04-23T03:31:05;32.77;;;16.57;;
18304;SDS011;9278;52.156;21.048;2023-04-23T03:33:34;29.63;;;16.03;;
18304;SDS011;9278;52.156;21.048;2023-04-23T03:36:02;30.50;;;15.40;;
18304;SDS011;9278;52.156;21.048;2023-04-23T03:38:31;34.23;;;16.43;;
18304;SDS011;9278;52.156;21.048;2023-04-23T03:41:03;37.03;;;16.60;;
18304;SDS011;9278;52.156;21.048;2023-04-23T03:43:33;34.97;;;16.23;;
18304;SDS011;9278;52.156;21.048;2023-04-23T03:46:22;32.67;;;16.70;;
18304;SDS011;9278;52.156;21.048;2023-04-23T03:48:51;34.73;;;16.57;;
18304;SDS011;9278;52.156;21.048;2023-04-23T03:51:25;36.07;;;17.23;;
18304;SDS011;9278;52.156;21.048;2023-04-23T03:53:53;34.70;;;15.65;;
18304;SDS011;9278;52.156;21.048;2023-04-23T03:56:33;33.92;;;16.63;;
18304;SDS011;9278;52.156;21.048;2023-04-23T03:59:22;32.30;;;17.13;;
18304;SDS011;9278;52.156;21.048;2023-04-23T04:01:53;32.50;;;17.13;;
18304;SDS011;9278;52.156;21.048;2023-04-23T04:04:23;32.30;;;16.30;;
18304;SDS011;9278;52.156;21.048;2023-04-23T04:06:54;37.83;;;16.63;;
18304;SDS011;9278;52.156;21.048;2023-04-23T04:09:25;30.10;;;16.48;;
18304;SDS011;9278;52.156;21.048;2023-04-23T04:12:00;36.17;;;16.80;;
18304;SDS011;9278;52.156;21.048;2023-04-23T04:14:29;36.73;;;17.33;;
18304;SDS011;9278;52.156;21.048;2023-04-23T04:16:58;30.75;;;16.67;;
18304;SDS011;9278;52.156;21.048;2023-04-23T04:19:26;37.03;;;17.63;;
18304;SDS011;9278;52.156;21.048;2023-04-23T04:21:54;38.38;;;16.75;;
18304;SDS011;9278;52.156;21.048;2023-04-23T04:24:23;37.47;;;17.30;;
18304;SDS011;9278;52.156;21.048;2023-04-23T04:26:53;34.72;;;16.55;;
18304;SDS011;9278;52.156;21.048;2023-04-23T04:29:22;38.88;;;16.90;;
18304;SDS011;9278;52.156;21.048;2023-04-23T04:31:51;31.60;;;15.33;;
18304;SDS011;9278;52.156;21.048;2023-04-23T04:34:19;37.28;;;16.83;;
18304;SDS011;9278;52.156;21.048;2023-04-23T04:36:48;27.33;;;15.63;;
18304;SDS011;9278;52.156;21.048;2023-04-23T04:39:19;35.57;;;16.00;;
18304;SDS011;9278;52.156;21.048;2023-04-23T04:41:47;33.90;;;15.67;;
18304;SDS011;9278;52.156;21.048;2023-04-23T04:44:15;33.27;;;16.60;;
18304;SDS011;9278;52.156;21.048;2023-04-23T04:46:45;31.00;;;16.30;;
18304;SDS011;9278;52.156;21.048;2023-04-23T04:49:13;35.50;;;16.80;;
18304;SDS011;9278;52.156;21.048;2023-04-23T04:51:44;38.63;;;17.27;;
18304;SDS011;9278;52.156;21.048;2023-04-23T04:54:13;34.83;;;16.75;;
18304;SDS011;9278;52.156;21.048;2023-04-23T04:56:41;35.65;;;17.20;;
18304;SDS011;9278;52.156;21.048;2023-04-23T04:59:09;29.75;;;16.98;;
18304;SDS011;9278;52.156;21.048;2023-04-23T05:01:37;33.33;;;16.52;;
18304;SDS011;9278;52.156;21.048;2023-04-23T05:04:07;36.67;;;17.00;;
18304;SDS011;9278;52.156;21.048;2023-04-23T05:06:35;32.60;;;17.35;;
18304;SDS011;9278;52.156;21.048;2023-04-23T05:09:04;33.15;;;16.77;;
18304;SDS011;9278;52.156;21.048;2023-04-23T05:11:32;39.70;;;17.33;;
18304;SDS011;9278;52.156;21.048;2023-04-23T05:14:01;34.13;;;16.67;;
18304;SDS011;9278;52.156;21.048;2023-04-23T05:16:30;33.75;;;16.63;;
18304;SDS011;9278;52.156;21.048;2023-04-23T05:18:58;32.63;;;16.77;;
18304;SDS011;9278;52.156;21.048;2023-04-23T05:21:28;30.73;;;16.23;;
18304;SDS011;9278;52.156;21.048;2023-04-23T05:23:56;38.17;;;16.77;;
18304;SDS011;9278;52.156;21.048;2023-04-23T05:26:25;27.40;;;15.10;;
18304;SDS011;9278;52.156;21.048;2023-04-23T05:28:53;34.83;;;16.45;;
18304;SDS011;9278;52.156;21.048;2023-04-23T05:31:21;41.05;;;16.38;;
18304;SDS011;9278;52.156;21.048;2023-04-23T05:33:50;28.45;;;15.70;;
18304;SDS011;9278;52.156;21.048;2023-04-23T05:36:19;29.98;;;14.88;;
18304;SDS011;9278;52.156;21.048;2023-04-23T05:38:48;34.15;;;16.05;;
18304;SDS011;9278;52.156;21.048;2023-04-23T05:41:16;31.08;;;15.43;;
18304;SDS011;9278;52.156;21.048;2023-04-23T05:43:45;26.17;;;15.15;;
18304;SDS011;9278;52.156;21.048;2023-04-23T05:46:13;25.48;;;14.15;;
18304;SDS011;9278;52.156;21.048;2023-04-23T05:48:42;28.17;;;14.48;;
18304;SDS011;9278;52.156;21.048;2023-04-23T05:51:10;28.02;;;13.55;;
18304;SDS011;9278;52.156;21.048;2023-04-23T05:53:38;26.27;;;14.02;;
18304;SDS011;9278;52.156;21.048;2023-04-23T05:56:08;23.92;;;13.45;;
18304;SDS011;9278;52.156;21.048;2023-04-23T05:58:36;26.80;;;13.48;;
18304;SDS011;9278;52.156;21.048;2023-04-23T06:01:05;23.52;;;12.05;;
18304;SDS011;9278;52.156;21.048;2023-04-23T06:03:33;23.40;;;12.90;;
18304;SDS011;9278;52.156;21.048;2023-04-23T06:06:03;29.65;;;12.68;;
18304;SDS011;9278;52.156;21.048;2023-04-23T06:08:32;24.40;;;13.00;;
18304;SDS011;9278;52.156;21.048;2023-04-23T06:11:00;26.42;;;12.20;;
18304;SDS011;9278;52.156;21.048;2023-04-23T06:13:30;22.40;;;11.88;;
18304;SDS011;9278;52.156;21.048;2023-04-23T06:15:58;22.17;;;11.45;;
18304;SDS011;9278;52.156;21.048;2023-04-23T06:18:27;21.55;;;11.68;;
18304;SDS011;9278;52.156;21.048;2023-04-23T06:20:55;21.23;;;11.55;;
18304;SDS011;9278;52.156;21.048;2023-04-23T06:23:24;27.38;;;11.57;;
18304;SDS011;9278;52.156;21.048;2023-04-23T06:25:52;24.75;;;12.30;;
18304;SDS011;9278;52.156;21.048;2023-04-23T06:28:21;24.63;;;11.93;;
18304;SDS011;9278;52.156;21.048;2023-04-23T06:31:10;21.58;;;11.35;;
18304;SDS011;9278;52.156;21.048;2023-04-23T06:33:39;22.35;;;10.70;;
18304;SDS011;9278;52.156;21.048;2023-04-23T06:36:07;20.17;;;10.75;;
18304;SDS011;9278;52.156;21.048;2023-04-23T06:38:36;22.08;;;11.52;;
18304;SDS011;9278;52.156;21.048;2023-04-23T06:41:05;17.02;;;9.70;;
18304;SDS011;9278;52.156;21.048;2023-04-23T06:43:33;23.80;;;10.77;;
18304;SDS011;9278;52.156;21.048;2023-04-23T06:46:20;21.48;;;9.60;;
18304;SDS011;9278;52.156;21.048;2023-04-23T06:48:49;16.92;;;9.85;;
18304;SDS011;9278;52.156;21.048;2023-04-23T06:51:17;17.80;;;9.50;;
18304;SDS011;9278;52.156;21.048;2023-04-23T06:53:45;19.67;;;9.90;;
18304;SDS011;9278;52.156;21.048;2023-04-23T06:56:14;24.73;;;10.02;;
18304;SDS011;9278;52.156;21.048;2023-04-23T06:58:42;18.45;;;9.27;;
18304;SDS011;9278;52.156;21.048;2023-04-23T07:01:16;18.30;;;9.57;;
18304;SDS011;9278;52.156;21.048;2023-04-23T07:03:47;16.20;;;9.13;;
18304;SDS011;9278;52.156;21.048;2023-04-23T07:06:17;19.20;;;9.60;;
18304;SDS011;9278;52.156;21.048;2023-04-23T07:08:45;14.52;;;8.80;;
18304;SDS011;9278;52.156;21.048;2023-04-23T07:11:14;23.48;;;9.52;;
18304;SDS011;9278;52.156;21.048;2023-04-23T07:13:42;22.05;;;9.35;;
18304;SDS011;9278;52.156;21.048;2023-04-23T07:16:10;17.23;;;8.60;;
18304;SDS011;9278;52.156;21.048;2023-04-23T07:18:39;15.85;;;8.57;;
18304;SDS011;9278;52.156;21.048;2023-04-23T07:21:08;17.33;;;8.55;;
18304;SDS011;9278;52.156;21.048;2023-04-23T07:23:36;14.82;;;7.63;;
18304;SDS011;9278;52.156;21.048;2023-04-23T07:26:05;13.95;;;7.40;;
18304;SDS011;9278;52.156;21.048;2023-04-23T07:28:33;14.88;;;7.70;;
18304;SDS011;9278;52.156;21.048;2023-04-23T07:31:01;21.58;;;7.32;;
18304;SDS011;9278;52.156;21.048;2023-04-23T07:33:29;13.85;;;6.65;;
18304;SDS011;9278;52.156;21.048;2023-04-23T07:35:57;11.55;;;6.47;;
18304;SDS011;9278;52.156;21.048;2023-04-23T07:38:27;10.38;;;6.85;;
18304;SDS011;9278;52.156;21.048;2023-04-23T07:40:55;17.92;;;6.40;;
18304;SDS011;9278;52.156;21.048;2023-04-23T07:43:23;11.80;;;6.25;;
18304;SDS011;9278;52.156;21.048;2023-04-23T07:45:52;18.83;;;5.95;;
18304;SDS011;9278;52.156;21.048;2023-04-23T07:48:20;13.35;;;5.25;;
18304;SDS011;9278;52.156;21.048;2023-04-23T07:50:48;12.77;;;5.95;;
18304;SDS011;9278;52.156;21.048;2023-04-23T07:53:17;11.43;;;5.55;;
18304;SDS011;9278;52.156;21.048;2023-04-23T07:55:46;16.73;;;5.25;;
18304;SDS011;9278;52.156;21.048;2023-04-23T07:58:14;12.75;;;4.85;;
18304;SDS011;9278;52.156;21.048;2023-04-23T08:00:43;9.38;;;5.50;;
18304;SDS011;9278;52.156;21.048;2023-04-23T08:03:11;11.07;;;5.63;;
18304;SDS011;9278;52.156;21.048;2023-04-23T08:05:40;12.07;;;5.18;;
18304;SDS011;9278;52.156;21.048;2023-04-23T08:08:09;13.30;;;5.32;;
18304;SDS011;9278;52.156;21.048;2023-04-23T08:10:39;11.25;;;5.78;;
18304;SDS011;9278;52.156;21.048;2023-04-23T08:13:09;9.52;;;5.05;;
18304;SDS011;9278;52.156;21.048;2023-04-23T08:15:37;8.25;;;4.80;;
18304;SDS011;9278;52.156;21.048;2023-04-23T08:18:05;9.05;;;4.40;;
18304;SDS011;9278;52.156;21.048;2023-04-23T08:20:34;9.73;;;4.78;;
18304;SDS011;9278;52.156;21.048;2023-04-23T08:23:02;7.88;;;4.68;;
18304;SDS011;9278;52.156;21.048;2023-04-23T08:25:31;11.20;;;5.18;;
18304;SDS011;9278;52.156;21.048;2023-04-23T08:28:00;10.00;;;4.72;;
18304;SDS011;9278;52.156;21.048;2023-04-23T08:30:30;10.18;;;4.53;;
18304;SDS011;9278;52.156;21.048;2023-04-23T08:32:58;14.45;;;4.93;;
18304;SDS011;9278;52.156;21.048;2023-04-23T08:35:27;8.57;;;4.18;;
18304;SDS011;9278;52.156;21.048;2023-04-23T08:37:55;8.73;;;4.10;;
18304;SDS011;9278;52.156;21.048;2023-04-23T08:40:24;8.13;;;4.40;;
18304;SDS011;9278;52.156;21.048;2023-04-23T08:42:57;5.97;;;3.70;;
18304;SDS011;9278;52.156;21.048;2023-04-23T08:45:28;10.02;;;4.03;;
18304;SDS011;9278;52.156;21.048;2023-04-23T08:47:59;6.10;;;3.95;;
18304;SDS011;9278;52.156;21.048;2023-04-23T08:50:28;7.85;;;4.35;;
18304;SDS011;9278;52.156;21.048;2023-04-23T08:52:57;7.03;;;4.00;;
18304;SDS011;9278;52.156;21.048;2023-04-23T08:55:26;9.32;;;4.15;;
18304;SDS011;9278;52.156;21.048;2023-04-23T08:57:56;11.43;;;4.32;;
18304;SDS011;9278;52.156;21.048;2023-04-23T09:00:25;8.02;;;3.92;;
18304;SDS011;9278;52.156;21.048;2023-04-23T09:02:55;8.82;;;4.10;;
18304;SDS011;9278;52.156;21.048;2023-04-23T09:05:25;11.23;;;4.20;;
18304;SDS011;9278;52.156;21.048;2023-04-23T09:07:54;7.95;;;4.00;;
18304;SDS011;9278;52.156;21.048;2023-04-23T09:10:24;8.88;;;4.25;;
18304;SDS011;9278;52.156;21.048;2023-04-23T09:12:52;11.43;;;4.22;;
18304;SDS011;9278;52.156;21.048;2023-04-23T09:15:21;7.03;;;4.10;;
18304;SDS011;9278;52.156;21.048;2023-04-23T09:17:49;9.05;;;4.05;;
18304;SDS011;9278;52.156;21.048;2023-04-23T09:20:18;9.90;;;3.97;;
18304;SDS011;9278;52.156;21.048;2023-04-23T09:22:47;13.30;;;3.90;;
18304;SDS011;9278;52.156;21.048;2023-04-23T09:25:17;13.55;;;4.18;;
18304;SDS011;9278;52.156;21.048;2023-04-23T09:27:46;5.15;;;3.30;;
18304;SDS011;9278;52.156;21.048;2023-04-23T09:30:16;6.07;;;3.42;;
18304;SDS011;9278;52.156;21.048;2023-04-23T09:32:46;6.97;;;3.80;;
18304;SDS011;9278;52.156;21.048;2023-04-23T09:35:15;9.23;;;3.97;;
18304;SDS011;9278;52.156;21.048;2023-04-23T09:37:47;11.00;;;4.25;;
18304;SDS011;9278;52.156;21.048;2023-04-23T09:40:18;7.38;;;4.80;;
18304;SDS011;9278;52.156;21.048;2023-04-23T09:42:49;7.53;;;3.70;;
18304;SDS011;9278;52.156;21.048;2023-04-23T09:45:21;9.80;;;4.03;;
18304;SDS011;9278;52.156;21.048;2023-04-23T09:47:51;6.53;;;3.60;;
18304;SDS011;9278;52.156;21.048;2023-04-23T09:50:30;6.68;;;3.70;;
18304;SDS011;9278;52.156;21.048;2023-04-23T09:53:00;7.88;;;3.75;;
18304;SDS011;9278;52.156;21.048;2023-04-23T09:55:29;11.40;;;3.53;;
18304;SDS011;9278;52.156;21.048;2023-04-23T09:58:02;5.60;;;3.42;;
18304;SDS011;9278;52.156;21.048;2023-04-23T10:00:34;6.60;;;3.80;;
18304;SDS011;9278;52.156;21.048;2023-04-23T10:03:03;6.00;;;3.72;;
18304;SDS011;9278;52.156;21.048;2023-04-23T10:05:36;9.73;;;4.07;;
18304;SDS011;9278;52.156;21.048;2023-04-23T10:08:27;8.95;;;4.20;;
18304;SDS011;9278;52.156;21.048;2023-04-23T10:10:55;6.07;;;3.22;;
18304;SDS011;9278;52.156;21.048;2023-04-23T10:13:43;4.93;;;3.20;;
18304;SDS011;9278;52.156;21.048;2023-04-23T10:16:12;7.20;;;3.20;;
18304;SDS011;9278;52.156;21.048;2023-04-23T10:18:50;5.72;;;3.50;;
18304;SDS011;9278;52.156;21.048;2023-04-23T10:21:21;6.93;;;3.50;;
18304;SDS011;9278;52.156;21.048;2023-04-23T10:24:06;6.82;;;3.53;;
18304;SDS011;9278;52.156;21.048;2023-04-23T10:26:37;5.90;;;3.58;;
18304;SDS011;9278;52.156;21.048;2023-04-23T10:29:13;7.22;;;3.15;;
18304;SDS011;9278;52.156;21.048;2023-04-23T10:31:44;6.28;;;3.30;;
18304;SDS011;9278;52.156;21.048;2023-04-23T10:34:13;7.93;;;3.60;;
18304;SDS011;9278;52.156;21.048;2023-04-23T10:36:42;8.23;;;3.22;;
18304;SDS011;9278;52.156;21.048;2023-04-23T10:39:12;7.43;;;3.50;;
18304;SDS011;9278;52.156;21.048;2023-04-23T10:41:54;7.60;;;3.35;;
18304;SDS011;9278;52.156;21.048;2023-04-23T10:44:30;5.88;;;3.17;;
18304;SDS011;9278;52.156;21.048;2023-04-23T10:47:19;5.18;;;3.20;;
18304;SDS011;9278;52.156;21.048;2023-04-23T10:49:48;4.45;;;3.00;;
18304;SDS011;9278;52.156;21.048;2023-04-23T10:52:17;4.45;;;3.00;;
18304;SDS011;9278;52.156;21.048;2023-04-23T10:54:56;4.72;;;3.15;;
18304;SDS011;9278;52.156;21.048;2023-04-23T10:57:26;5.55;;;3.28;;
18304;SDS011;9278;52.156;21.048;2023-04-23T10:59:54;8.80;;;3.58;;
18304;SDS011;9278;52.156;21.048;2023-04-23T11:02:24;6.88;;;3.92;;
18304;SDS011;9278;52.156;21.048;2023-04-23T11:04:53;6.45;;;3.90;;
18304;SDS011;9278;52.156;21.048;2023-04-23T11:07:24;6.07;;;2.85;;
18304;SDS011;9278;52.156;21.048;2023-04-23T11:09:59;5.07;;;3.00;;
18304;SDS011;9278;52.156;21.048;2023-04-23T11:12:31;7.90;;;3.33;;
18304;SDS011;9278;52.156;21.048;2023-04-23T11:15:08;9.93;;;3.15;;
18304;SDS011;9278;52.156;21.048;2023-04-23T11:17:57;7.65;;;3.03;;
18304;SDS011;9278;52.156;21.048;2023-04-23T11:20:26;8.65;;;2.97;;
18304;SDS011;9278;52.156;21.048;2023-04-23T11:22:54;5.97;;;3.60;;
18304;SDS011;9278;52.156;21.048;2023-04-23T11:25:24;9.23;;;3.67;;
18304;SDS011;9278;52.156;21.048;2023-04-23T11:27:55;9.65;;;3.20;;
18304;SDS011;9278;52.156;21.048;2023-04-23T11:30:25;5.32;;;3.30;;
18304;SDS011;9278;52.156;21.048;2023-04-23T11:32:55;5.43;;;3.00;;
18304;SDS011;9278;52.156;21.048;2023-04-23T11:35:25;11.38;;;3.15;;
18304;SDS011;9278;52.156;21.048;2023-04-23T11:37:56;7.05;;;3.47;;
18304;SDS011;9278;52.156;21.048;2023-04-23T11:40:25;7.63;;;2.97;;
18304;SDS011;9278;52.156;21.048;2023-04-23T11:42:56;7.07;;;2.88;;
18304;SDS011;9278;52.156;21.048;2023-04-23T11:45:25;8.32;;;3.53;;
18304;SDS011;9278;52.156;21.048;2023-04-23T11:47:54;6.15;;;3.80;;
18304;SDS011;9278;52.156;21.048;2023-04-23T11:50:25;5.72;;;3.38;;
18304;SDS011;9278;52.156;21.048;2023-04-23T11:52:55;6.20;;;3.45;;
18304;SDS011;9278;52.156;21.048;2023-04-23T11:55:23;4.07;;;3.00;;
18304;SDS011;9278;52.156;21.048;2023-04-23T11:57:55;7.60;;;3.42;;
18304;SDS011;9278;52.156;21.048;2023-04-23T12:00:24;5.38;;;2.90;;
18304;SDS011;9278;52.156;21.048;2023-04-23T12:02:53;4.70;;;3.10;;
18304;SDS011;9278;52.156;21.048;2023-04-23T12:05:26;8.32;;;3.67;;
18304;SDS011;9278;52.156;21.048;2023-04-23T12:08:07;8.82;;;3.53;;
18304;SDS011;9278;52.156;21.048;2023-04-23T12:10:44;5.60;;;3.95;;
18304;SDS011;9278;52.156;21.048;2023-04-23T12:13:14;9.13;;;3.70;;
18304;SDS011;9278;52.156;21.048;2023-04-23T12:15:44;4.55;;;3.03;;
18304;SDS011;9278;52.156;21.048;2023-04-23T12:18:13;6.10;;;3.40;;
18304;SDS011;9278;52.156;21.048;2023-04-23T12:20:42;4.70;;;3.30;;
18304;SDS011;9278;52.156;21.048;2023-04-23T12:23:10;7.53;;;3.47;;
18304;SDS011;9278;52.156;21.048;2023-04-23T12:25:38;7.13;;;3.38;;
18304;SDS011;9278;52.156;21.048;2023-04-23T12:28:09;5.72;;;3.10;;
18304;SDS011;9278;52.156;21.048;2023-04-23T12:30:41;6.40;;;3.53;;
18304;SDS011;9278;52.156;21.048;2023-04-23T12:33:11;8.93;;;3.30;;
18304;SDS011;9278;52.156;21.048;2023-04-23T12:35:39;5.63;;;3.30;;
18304;SDS011;9278;52.156;21.048;2023-04-23T12:38:20;4.65;;;3.42;;
18304;SDS011;9278;52.156;21.048;2023-04-23T12:40:49;5.57;;;3.63;;
18304;SDS011;9278;52.156;21.048;2023-04-23T12:43:19;11.75;;;3.45;;
18304;SDS011;9278;52.156;21.048;2023-04-23T12:45:47;5.68;;;3.58;;
18304;SDS011;9278;52.156;21.048;2023-04-23T12:48:17;6.68;;;3.03;;
18304;SDS011;9278;52.156;21.048;2023-04-23T12:50:45;6.13;;;3.20;;
18304;SDS011;9278;52.156;21.048;2023-04-23T12:53:14;4.25;;;3.10;;
18304;SDS011;9278;52.156;21.048;2023-04-23T12:55:42;9.00;;;4.13;;
18304;SDS011;9278;52.156;21.048;2023-04-23T12:58:11;7.97;;;3.45;;
18304;SDS011;9278;52.156;21.048;2023-04-23T13:00:41;8.35;;;3.60;;
18304;SDS011;9278;52.156;21.048;2023-04-23T13:03:09;6.72;;;3.55;;
18304;SDS011;9278;52.156;21.048;2023-04-23T13:05:39;5.07;;;3.20;;
18304;SDS011;9278;52.156;21.048;2023-04-23T13:08:07;8.30;;;3.85;;
18304;SDS011;9278;52.156;21.048;2023-04-23T13:10:36;5.10;;;3.80;;
18304;SDS011;9278;52.156;21.048;2023-04-23T13:13:04;5.03;;;3.03;;
18304;SDS011;9278;52.156;21.048;2023-04-23T13:15:32;6.13;;;3.60;;
18304;SDS011;9278;52.156;21.048;2023-04-23T13:18:02;6.15;;;3.60;;
18304;SDS011;9278;52.156;21.048;2023-04-23T13:20:30;7.20;;;3.45;;
18304;SDS011;9278;52.156;21.048;2023-04-23T13:22:58;5.53;;;3.55;;
18304;SDS011;9278;52.156;21.048;2023-04-23T13:25:28;7.72;;;3.63;;
18304;SDS011;9278;52.156;21.048;2023-04-23T13:27:56;6.40;;;3.35;;
18304;SDS011;9278;52.156;21.048;2023-04-23T13:30:24;8.80;;;3.70;;
18304;SDS011;9278;52.156;21.048;2023-04-23T13:32:53;12.45;;;3.42;;
18304;SDS011;9278;52.156;21.048;2023-04-23T13:35:24;7.35;;;3.20;;
18304;SDS011;9278;52.156;21.048;2023-04-23T13:37:52;7.75;;;3.25;;
18304;SDS011;9278;52.156;21.048;2023-04-23T13:40:21;6.30;;;3.17;;
18304;SDS011;9278;52.156;21.048;2023-04-23T13:42:49;6.63;;;3.72;;
18304;SDS011;9278;52.156;21.048;2023-04-23T13:45:20;6.78;;;3.40;;
18304;SDS011;9278;52.156;21.048;2023-04-23T13:47:48;6.75;;;3.35;;
18304;SDS011;9278;52.156;21.048;2023-04-23T13:50:17;6.32;;;3.20;;
18304;SDS011;9278;52.156;21.048;2023-04-23T13:52:46;7.95;;;3.47;;
18304;SDS011;9278;52.156;21.048;2023-04-23T13:55:15;6.78;;;3.30;;
18304;SDS011;9278;52.156;21.048;2023-04-23T13:57:43;5.03;;;3.30;;
18304;SDS011;9278;52.156;21.048;2023-04-23T14:00:12;13.25;;;3.35;;
18304;SDS011;9278;52.156;21.048;2023-04-23T14:02:41;7.40;;;3.42;;
18304;SDS011;9278;52.156;21.048;2023-04-23T14:05:09;5.25;;;3.42;;
18304;SDS011;9278;52.156;21.048;2023-04-23T14:07:37;7.18;;;3.47;;
18304;SDS011;9278;52.156;21.048;2023-04-23T14:10:07;9.02;;;3.42;;
18304;SDS011;9278;52.156;21.048;2023-04-23T14:12:36;5.20;;;3.28;;
18304;SDS011;9278;52.156;21.048;2023-04-23T14:15:05;6.90;;;3.58;;
18304;SDS011;9278;52.156;21.048;2023-04-23T14:17:34;5.53;;;3.47;;
18304;SDS011;9278;52.156;21.048;2023-04-23T14:20:05;7.43;;;3.00;;
18304;SDS011;9278;52.156;21.048;2023-04-23T14:22:34;6.28;;;3.60;;
18304;SDS011;9278;52.156;21.048;2023-04-23T14:25:06;5.90;;;3.25;;
18304;SDS011;9278;52.156;21.048;2023-04-23T14:27:43;6.72;;;3.20;;
18304;SDS011;9278;52.156;21.048;2023-04-23T14:30:14;10.40;;;3.65;;
18304;SDS011;9278;52.156;21.048;2023-04-23T14:32:43;6.60;;;3.47;;
18304;SDS011;9278;52.156;21.048;2023-04-23T14:35:15;6.93;;;3.50;;
18304;SDS011;9278;52.156;21.048;2023-04-23T14:37:54;5.60;;;3.80;;
18304;SDS011;9278;52.156;21.048;2023-04-23T14:40:24;5.65;;;3.53;;
18304;SDS011;9278;52.156;21.048;2023-04-23T14:42:52;7.07;;;3.55;;
18304;SDS011;9278;52.156;21.048;2023-04-23T14:45:30;10.13;;;3.85;;
18304;SDS011;9278;52.156;21.048;2023-04-23T14:47:58;4.95;;;3.55;;
18304;SDS011;9278;52.156;21.048;2023-04-23T14:50:27;6.40;;;3.50;;